sensor_id;sensor_type;location;lat;lon;timestamp;P1;durP1;ratioP1;P2;durP2;ratioP2
49784;SDS011;35679;38.732;-121.358;2024-03-22T00:02:44;1.85;;;1.75;;
49784;SDS011;35679;38.732;-121.358;2024-03-22T00:05:32;1.90;;;1.80;;
49784;SDS011;35679;38.732;-121.358;2024-03-22T00:08:20;1.65;;;1.65;;
49784;SDS011;35679;38.732;-121.358;2024-03-22T00:11:07;1.75;;;1.70;;
49784;SDS011;35679;38.732;-121.358;2024-03-22T00:13:55;2.15;;;1.70;;
49784;SDS011;35679;38.732;-121.358;2024-03-22T00:16:43;1.80;;;1.70;;
49784;SDS011;35679;38.732;-121.358;2024-03-22T00:19:30;1.77;;;1.70;;
49784;SDS011;35679;38.732;-121.358;2024-03-22T00:22:18;2.08;;;1.90;;
49784;SDS011;35679;38.732;-121.358;2024-03-22T00:25:06;1.80;;;1.80;;
49784;SDS011;35679;38.732;-121.358;2024-03-22T00:27:54;1.80;;;1.80;;
49784;SDS011;35679;38.732;-121.358;2024-03-22T00:30:42;1.77;;;1.77;;
49784;SDS011;35679;38.732;-121.358;2024-03-22T00:33:30;1.80;;;1.70;;
49784;SDS011;35679;38.732;-121.358;2024-03-22T00:36:18;1.60;;;1.60;;
49784;SDS011;35679;38.732;-121.358;2024-03-22T00:39:06;1.77;;;1.67;;
49784;SDS011;35679;38.732;-121.358;2024-03-22T00:41:54;1.60;;;1.60;;
49784;SDS011;35679;38.732;-121.358;2024-03-22T00:44:42;1.92;;;1.83;;
49784;SDS011;35679;38.732;-121.358;2024-03-22T00:47:29;1.70;;;1.70;;
49784;SDS011;35679;38.732;-121.358;2024-03-22T00:50:17;1.83;;;1.83;;
49784;SDS011;35679;38.732;-121.358;2024-03-22T00:53:05;2.10;;;2.00;;
49784;SDS011;35679;38.732;-121.358;2024-03-22T00:55:55;2.10;;;2.00;;
49784;SDS011;35679;38.732;-121.358;2024-03-22T00:58:45;2.30;;;2.20;;
49784;SDS011;35679;38.732;-121.358;2024-03-22T01:01:33;1.92;;;1.92;;
49784;SDS011;35679;38.732;-121.358;2024-03-22T01:04:20;4.32;;;4.22;;
49784;SDS011;35679;38.732;-121.358;2024-03-22T01:07:08;4.18;;;4.07;;
49784;SDS011;35679;38.732;-121.358;2024-03-22T01:09:56;4.30;;;4.20;;
49784;SDS011;35679;38.732;-121.358;2024-03-22T01:12:44;4.80;;;4.60;;
49784;SDS011;35679;38.732;-121.358;2024-03-22T01:15:31;4.63;;;4.50;;
49784;SDS011;35679;38.732;-121.358;2024-03-22T01:18:19;4.68;;;4.47;;
49784;SDS011;35679;38.732;-121.358;2024-03-22T01:21:07;4.32;;;4.13;;
49784;SDS011;35679;38.732;-121.358;2024-03-22T01:23:54;2.50;;;2.40;;
49784;SDS011;35679;38.732;-121.358;2024-03-22T01:26:42;2.60;;;2.50;;
49784;SDS011;35679;38.732;-121.358;2024-03-22T01:29:29;2.65;;;2.58;;
49784;SDS011;35679;38.732;-121.358;2024-03-22T01:32:18;2.45;;;2.35;;
49784;SDS011;35679;38.732;-121.358;2024-03-22T01:35:06;2.60;;;2.50;;
49784;SDS011;35679;38.732;-121.358;2024-03-22T01:37:55;2.40;;;2.40;;
49784;SDS011;35679;38.732;-121.358;2024-03-22T01:40:42;2.58;;;2.47;;
49784;SDS011;35679;38.732;-121.358;2024-03-22T01:43:30;2.50;;;2.40;;
49784;SDS011;35679;38.732;-121.358;2024-03-22T01:46:17;2.25;;;2.25;;
49784;SDS011;35679;38.732;-121.358;2024-03-22T01:49:05;2.25;;;2.20;;
49784;SDS011;35679;38.732;-121.358;2024-03-22T01:51:55;2.80;;;2.70;;
49784;SDS011;35679;38.732;-121.358;2024-03-22T01:54:42;3.10;;;3.00;;
49784;SDS011;35679;38.732;-121.358;2024-03-22T01:57:30;3.13;;;3.03;;
49784;SDS011;35679;38.732;-121.358;2024-03-22T02:00:19;3.10;;;3.00;;
49784;SDS011;35679;38.732;-121.358;2024-03-22T02:03:07;3.00;;;2.90;;
49784;SDS011;35679;38.732;-121.358;2024-03-22T02:05:55;3.08;;;2.88;;
49784;SDS011;35679;38.732;-121.358;2024-03-22T02:08:43;3.00;;;2.90;;
49784;SDS011;35679;38.732;-121.358;2024-03-22T02:11:31;3.10;;;3.00;;
49784;SDS011;35679;38.732;-121.358;2024-03-22T02:14:18;5.28;;;5.07;;
49784;SDS011;35679;38.732;-121.358;2024-03-22T02:17:06;5.40;;;5.20;;
49784;SDS011;35679;38.732;-121.358;2024-03-22T02:19:54;5.35;;;5.15;;
49784;SDS011;35679;38.732;-121.358;2024-03-22T02:22:41;4.70;;;4.60;;
49784;SDS011;35679;38.732;-121.358;2024-03-22T02:25:29;5.30;;;5.10;;
49784;SDS011;35679;38.732;-121.358;2024-03-22T02:28:17;5.40;;;5.20;;
49784;SDS011;35679;38.732;-121.358;2024-03-22T02:31:04;4.47;;;4.28;;
49784;SDS011;35679;38.732;-121.358;2024-03-22T02:33:52;3.70;;;3.60;;
49784;SDS011;35679;38.732;-121.358;2024-03-22T02:36:39;3.70;;;3.40;;
49784;SDS011;35679;38.732;-121.358;2024-03-22T02:39:27;5.20;;;5.00;;
49784;SDS011;35679;38.732;-121.358;2024-03-22T02:42:15;4.50;;;4.30;;
49784;SDS011;35679;38.732;-121.358;2024-03-22T02:45:03;5.20;;;4.90;;
49784;SDS011;35679;38.732;-121.358;2024-03-22T02:47:51;4.60;;;4.40;;
49784;SDS011;35679;38.732;-121.358;2024-03-22T02:50:39;5.20;;;5.00;;
49784;SDS011;35679;38.732;-121.358;2024-03-22T02:53:26;5.50;;;5.30;;
49784;SDS011;35679;38.732;-121.358;2024-03-22T02:56:14;3.80;;;3.70;;
49784;SDS011;35679;38.732;-121.358;2024-03-22T02:59:02;5.32;;;5.13;;
49784;SDS011;35679;38.732;-121.358;2024-03-22T03:01:50;5.45;;;5.25;;
49784;SDS011;35679;38.732;-121.358;2024-03-22T03:04:37;5.50;;;5.30;;
49784;SDS011;35679;38.732;-121.358;2024-03-22T03:07:25;5.10;;;4.90;;
49784;SDS011;35679;38.732;-121.358;2024-03-22T03:10:13;5.70;;;5.50;;
49784;SDS011;35679;38.732;-121.358;2024-03-22T03:13:01;6.22;;;5.93;;
49784;SDS011;35679;38.732;-121.358;2024-03-22T03:15:48;7.60;;;7.30;;
49784;SDS011;35679;38.732;-121.358;2024-03-22T03:18:36;5.90;;;5.70;;
49784;SDS011;35679;38.732;-121.358;2024-03-22T03:21:24;6.07;;;5.70;;
49784;SDS011;35679;38.732;-121.358;2024-03-22T03:24:11;5.50;;;5.30;;
49784;SDS011;35679;38.732;-121.358;2024-03-22T03:26:59;5.60;;;5.40;;
49784;SDS011;35679;38.732;-121.358;2024-03-22T03:29:47;5.85;;;5.65;;
49784;SDS011;35679;38.732;-121.358;2024-03-22T03:32:35;5.70;;;5.50;;
49784;SDS011;35679;38.732;-121.358;2024-03-22T03:35:22;5.50;;;5.30;;
49784;SDS011;35679;38.732;-121.358;2024-03-22T03:38:10;5.78;;;5.57;;
49784;SDS011;35679;38.732;-121.358;2024-03-22T03:40:58;5.80;;;5.60;;
49784;SDS011;35679;38.732;-121.358;2024-03-22T03:43:45;4.70;;;4.50;;
49784;SDS011;35679;38.732;-121.358;2024-03-22T03:46:33;4.50;;;4.30;;
49784;SDS011;35679;38.732;-121.358;2024-03-22T03:49:20;4.50;;;4.22;;
49784;SDS011;35679;38.732;-121.358;2024-03-22T03:52:08;3.70;;;3.40;;
49784;SDS011;35679;38.732;-121.358;2024-03-22T03:54:56;4.35;;;3.95;;
49784;SDS011;35679;38.732;-121.358;2024-03-22T03:57:44;4.63;;;3.90;;
49784;SDS011;35679;38.732;-121.358;2024-03-22T04:00:31;4.88;;;4.55;;
49784;SDS011;35679;38.732;-121.358;2024-03-22T04:03:19;5.50;;;5.10;;
49784;SDS011;35679;38.732;-121.358;2024-03-22T04:06:06;5.47;;;5.07;;
49784;SDS011;35679;38.732;-121.358;2024-03-22T04:08:54;5.15;;;4.85;;
49784;SDS011;35679;38.732;-121.358;2024-03-22T04:11:42;5.55;;;5.05;;
49784;SDS011;35679;38.732;-121.358;2024-03-22T04:14:30;5.43;;;4.82;;
49784;SDS011;35679;38.732;-121.358;2024-03-22T04:17:18;5.35;;;4.97;;
49784;SDS011;35679;38.732;-121.358;2024-03-22T04:20:06;4.82;;;4.60;;
49784;SDS011;35679;38.732;-121.358;2024-03-22T04:22:55;5.80;;;5.40;;
49784;SDS011;35679;38.732;-121.358;2024-03-22T04:25:51;8.18;;;7.57;;
49784;SDS011;35679;38.732;-121.358;2024-03-22T04:28:40;8.25;;;7.50;;
49784;SDS011;35679;38.732;-121.358;2024-03-22T04:31:28;8.60;;;8.13;;
49784;SDS011;35679;38.732;-121.358;2024-03-22T04:34:15;9.70;;;9.20;;
49784;SDS011;35679;38.732;-121.358;2024-03-22T04:37:03;8.43;;;7.82;;
49784;SDS011;35679;38.732;-121.358;2024-03-22T04:39:51;6.90;;;6.50;;
49784;SDS011;35679;38.732;-121.358;2024-03-22T04:42:39;6.97;;;6.40;;
49784;SDS011;35679;38.732;-121.358;2024-03-22T04:45:27;6.82;;;6.32;;
49784;SDS011;35679;38.732;-121.358;2024-03-22T04:48:16;6.60;;;6.20;;
49784;SDS011;35679;38.732;-121.358;2024-03-22T04:51:05;7.78;;;7.38;;
49784;SDS011;35679;38.732;-121.358;2024-03-22T04:53:53;8.35;;;7.75;;
49784;SDS011;35679;38.732;-121.358;2024-03-22T04:56:40;8.98;;;8.48;;
49784;SDS011;35679;38.732;-121.358;2024-03-22T04:59:28;6.50;;;6.00;;
49784;SDS011;35679;38.732;-121.358;2024-03-22T05:02:16;5.20;;;4.80;;
49784;SDS011;35679;38.732;-121.358;2024-03-22T05:05:04;6.53;;;6.13;;
49784;SDS011;35679;38.732;-121.358;2024-03-22T05:07:52;6.75;;;6.15;;
49784;SDS011;35679;38.732;-121.358;2024-03-22T05:10:40;6.28;;;5.88;;
49784;SDS011;35679;38.732;-121.358;2024-03-22T05:13:28;7.80;;;7.30;;
49784;SDS011;35679;38.732;-121.358;2024-03-22T05:16:16;11.02;;;10.43;;
49784;SDS011;35679;38.732;-121.358;2024-03-22T05:19:04;11.00;;;10.40;;
49784;SDS011;35679;38.732;-121.358;2024-03-22T05:21:51;10.68;;;10.07;;
49784;SDS011;35679;38.732;-121.358;2024-03-22T05:24:39;11.43;;;10.70;;
49784;SDS011;35679;38.732;-121.358;2024-03-22T05:27:27;6.93;;;6.43;;
49784;SDS011;35679;38.732;-121.358;2024-03-22T05:30:14;6.65;;;6.25;;
49784;SDS011;35679;38.732;-121.358;2024-03-22T05:33:02;4.30;;;3.90;;
49784;SDS011;35679;38.732;-121.358;2024-03-22T05:35:50;3.97;;;3.50;;
49784;SDS011;35679;38.732;-121.358;2024-03-22T05:38:37;4.10;;;3.80;;
49784;SDS011;35679;38.732;-121.358;2024-03-22T05:41:25;3.70;;;3.40;;
49784;SDS011;35679;38.732;-121.358;2024-03-22T05:44:13;3.72;;;3.42;;
49784;SDS011;35679;38.732;-121.358;2024-03-22T05:47:01;4.22;;;3.80;;
49784;SDS011;35679;38.732;-121.358;2024-03-22T05:49:48;4.47;;;3.60;;
49784;SDS011;35679;38.732;-121.358;2024-03-22T05:52:36;3.60;;;3.30;;
49784;SDS011;35679;38.732;-121.358;2024-03-22T05:55:24;4.00;;;3.63;;
49784;SDS011;35679;38.732;-121.358;2024-03-22T05:58:14;3.13;;;2.92;;
49784;SDS011;35679;38.732;-121.358;2024-03-22T06:01:02;3.85;;;3.55;;
49784;SDS011;35679;38.732;-121.358;2024-03-22T06:03:49;3.75;;;3.45;;
49784;SDS011;35679;38.732;-121.358;2024-03-22T06:06:37;4.00;;;3.70;;
49784;SDS011;35679;38.732;-121.358;2024-03-22T06:09:26;3.70;;;3.40;;
49784;SDS011;35679;38.732;-121.358;2024-03-22T06:12:33;3.60;;;3.30;;
49784;SDS011;35679;38.732;-121.358;2024-03-22T06:15:20;3.58;;;3.30;;
49784;SDS011;35679;38.732;-121.358;2024-03-22T06:18:08;3.35;;;3.15;;
49784;SDS011;35679;38.732;-121.358;2024-03-22T06:20:56;3.70;;;3.40;;
49784;SDS011;35679;38.732;-121.358;2024-03-22T06:23:43;3.58;;;3.28;;
49784;SDS011;35679;38.732;-121.358;2024-03-22T06:26:31;4.00;;;3.53;;
49784;SDS011;35679;38.732;-121.358;2024-03-22T06:29:19;4.07;;;3.67;;
49784;SDS011;35679;38.732;-121.358;2024-03-22T06:32:06;4.35;;;3.30;;
49784;SDS011;35679;38.732;-121.358;2024-03-22T06:34:54;3.40;;;3.10;;
49784;SDS011;35679;38.732;-121.358;2024-03-22T06:37:42;3.60;;;3.30;;
49784;SDS011;35679;38.732;-121.358;2024-03-22T06:40:30;3.85;;;3.58;;
49784;SDS011;35679;38.732;-121.358;2024-03-22T06:43:18;3.47;;;3.20;;
49784;SDS011;35679;38.732;-121.358;2024-03-22T06:46:05;3.47;;;3.20;;
49784;SDS011;35679;38.732;-121.358;2024-03-22T06:48:53;3.80;;;3.50;;
49784;SDS011;35679;38.732;-121.358;2024-03-22T06:51:41;3.58;;;3.28;;
49784;SDS011;35679;38.732;-121.358;2024-03-22T06:54:29;3.70;;;3.40;;
49784;SDS011;35679;38.732;-121.358;2024-03-22T06:57:16;3.67;;;3.35;;
49784;SDS011;35679;38.732;-121.358;2024-03-22T07:00:04;3.63;;;3.30;;
49784;SDS011;35679;38.732;-121.358;2024-03-22T07:02:52;3.75;;;3.40;;
49784;SDS011;35679;38.732;-121.358;2024-03-22T07:05:42;3.42;;;3.22;;
49784;SDS011;35679;38.732;-121.358;2024-03-22T07:08:32;3.60;;;3.38;;
49784;SDS011;35679;38.732;-121.358;2024-03-22T07:11:20;3.60;;;3.30;;
49784;SDS011;35679;38.732;-121.358;2024-03-22T07:14:09;3.67;;;3.38;;
49784;SDS011;35679;38.732;-121.358;2024-03-22T07:16:57;3.28;;;2.80;;
49784;SDS011;35679;38.732;-121.358;2024-03-22T07:19:44;3.45;;;3.10;;
49784;SDS011;35679;38.732;-121.358;2024-03-22T07:22:32;4.03;;;3.40;;
49784;SDS011;35679;38.732;-121.358;2024-03-22T07:25:19;3.38;;;3.08;;
49784;SDS011;35679;38.732;-121.358;2024-03-22T07:28:07;3.78;;;3.35;;
49784;SDS011;35679;38.732;-121.358;2024-03-22T07:30:55;4.47;;;3.25;;
49784;SDS011;35679;38.732;-121.358;2024-03-22T07:33:43;4.22;;;3.17;;
49784;SDS011;35679;38.732;-121.358;2024-03-22T07:36:30;3.25;;;3.05;;
49784;SDS011;35679;38.732;-121.358;2024-03-22T07:39:18;3.92;;;3.53;;
49784;SDS011;35679;38.732;-121.358;2024-03-22T07:42:06;3.63;;;3.33;;
49784;SDS011;35679;38.732;-121.358;2024-03-22T07:44:53;3.20;;;3.00;;
49784;SDS011;35679;38.732;-121.358;2024-03-22T07:47:41;3.28;;;2.97;;
49784;SDS011;35679;38.732;-121.358;2024-03-22T07:50:30;3.03;;;2.80;;
49784;SDS011;35679;38.732;-121.358;2024-03-22T07:53:17;2.90;;;2.70;;
49784;SDS011;35679;38.732;-121.358;2024-03-22T07:56:05;3.70;;;3.40;;
49784;SDS011;35679;38.732;-121.358;2024-03-22T07:58:53;3.13;;;2.92;;
49784;SDS011;35679;38.732;-121.358;2024-03-22T08:01:42;3.30;;;3.10;;
49784;SDS011;35679;38.732;-121.358;2024-03-22T08:04:30;3.10;;;2.90;;
49784;SDS011;35679;38.732;-121.358;2024-03-22T08:07:17;3.60;;;3.30;;
49784;SDS011;35679;38.732;-121.358;2024-03-22T08:10:05;3.03;;;2.80;;
49784;SDS011;35679;38.732;-121.358;2024-03-22T08:12:53;4.90;;;3.13;;
49784;SDS011;35679;38.732;-121.358;2024-03-22T08:15:41;3.33;;;3.03;;
49784;SDS011;35679;38.732;-121.358;2024-03-22T08:18:30;3.33;;;3.08;;
49784;SDS011;35679;38.732;-121.358;2024-03-22T08:21:19;3.60;;;3.30;;
49784;SDS011;35679;38.732;-121.358;2024-03-22T08:24:07;3.40;;;3.20;;
49784;SDS011;35679;38.732;-121.358;2024-03-22T08:26:55;3.55;;;3.25;;
49784;SDS011;35679;38.732;-121.358;2024-03-22T08:29:42;3.58;;;3.35;;
49784;SDS011;35679;38.732;-121.358;2024-03-22T08:32:30;3.50;;;3.20;;
49784;SDS011;35679;38.732;-121.358;2024-03-22T08:35:19;3.08;;;2.88;;
49784;SDS011;35679;38.732;-121.358;2024-03-22T08:38:07;3.03;;;2.80;;
49784;SDS011;35679;38.732;-121.358;2024-03-22T08:40:57;3.20;;;3.00;;
49784;SDS011;35679;38.732;-121.358;2024-03-22T08:43:44;3.42;;;3.08;;
49784;SDS011;35679;38.732;-121.358;2024-03-22T08:46:32;3.50;;;3.20;;
49784;SDS011;35679;38.732;-121.358;2024-03-22T08:49:20;2.97;;;2.78;;
49784;SDS011;35679;38.732;-121.358;2024-03-22T08:52:07;3.50;;;3.30;;
49784;SDS011;35679;38.732;-121.358;2024-03-22T08:54:55;3.58;;;3.28;;
49784;SDS011;35679;38.732;-121.358;2024-03-22T08:57:43;3.03;;;2.70;;
49784;SDS011;35679;38.732;-121.358;2024-03-22T09:00:30;2.90;;;2.70;;
49784;SDS011;35679;38.732;-121.358;2024-03-22T09:03:18;3.10;;;2.90;;
49784;SDS011;35679;38.732;-121.358;2024-03-22T09:06:08;4.15;;;2.92;;
49784;SDS011;35679;38.732;-121.358;2024-03-22T09:08:55;3.28;;;3.08;;
49784;SDS011;35679;38.732;-121.358;2024-03-22T09:11:44;3.83;;;2.80;;
49784;SDS011;35679;38.732;-121.358;2024-03-22T09:14:32;3.35;;;3.15;;
49784;SDS011;35679;38.732;-121.358;2024-03-22T09:17:19;3.10;;;2.90;;
49784;SDS011;35679;38.732;-121.358;2024-03-22T09:20:07;2.80;;;2.60;;
49784;SDS011;35679;38.732;-121.358;2024-03-22T09:22:55;3.03;;;2.83;;
49784;SDS011;35679;38.732;-121.358;2024-03-22T09:25:43;3.17;;;2.97;;
49784;SDS011;35679;38.732;-121.358;2024-03-22T09:28:33;3.20;;;2.90;;
49784;SDS011;35679;38.732;-121.358;2024-03-22T09:31:20;3.45;;;3.15;;
49784;SDS011;35679;38.732;-121.358;2024-03-22T09:34:08;3.10;;;2.90;;
49784;SDS011;35679;38.732;-121.358;2024-03-22T09:36:56;2.90;;;2.70;;
49784;SDS011;35679;38.732;-121.358;2024-03-22T09:39:44;3.13;;;2.90;;
49784;SDS011;35679;38.732;-121.358;2024-03-22T09:42:32;3.10;;;2.90;;
49784;SDS011;35679;38.732;-121.358;2024-03-22T09:45:23;3.05;;;2.80;;
49784;SDS011;35679;38.732;-121.358;2024-03-22T09:48:11;3.58;;;3.28;;
49784;SDS011;35679;38.732;-121.358;2024-03-22T09:51:00;3.08;;;2.88;;
49784;SDS011;35679;38.732;-121.358;2024-03-22T09:53:48;3.05;;;2.85;;
49784;SDS011;35679;38.732;-121.358;2024-03-22T09:56:38;3.15;;;2.85;;
49784;SDS011;35679;38.732;-121.358;2024-03-22T09:59:26;3.20;;;3.00;;
49784;SDS011;35679;38.732;-121.358;2024-03-22T10:02:14;3.30;;;3.00;;
49784;SDS011;35679;38.732;-121.358;2024-03-22T10:05:03;3.00;;;2.80;;
49784;SDS011;35679;38.732;-121.358;2024-03-22T10:07:51;3.22;;;3.03;;
49784;SDS011;35679;38.732;-121.358;2024-03-22T10:10:38;3.03;;;2.83;;
49784;SDS011;35679;38.732;-121.358;2024-03-22T10:13:26;3.17;;;2.97;;
49784;SDS011;35679;38.732;-121.358;2024-03-22T10:16:14;2.80;;;2.60;;
49784;SDS011;35679;38.732;-121.358;2024-03-22T10:19:05;3.08;;;2.88;;
49784;SDS011;35679;38.732;-121.358;2024-03-22T10:22:03;3.05;;;2.80;;
49784;SDS011;35679;38.732;-121.358;2024-03-22T10:24:52;2.70;;;2.50;;
49784;SDS011;35679;38.732;-121.358;2024-03-22T10:27:40;2.83;;;2.63;;
49784;SDS011;35679;38.732;-121.358;2024-03-22T10:30:28;4.55;;;2.88;;
49784;SDS011;35679;38.732;-121.358;2024-03-22T10:33:18;2.70;;;2.60;;
49784;SDS011;35679;38.732;-121.358;2024-03-22T10:36:07;2.95;;;2.75;;
49784;SDS011;35679;38.732;-121.358;2024-03-22T10:38:55;2.90;;;2.70;;
49784;SDS011;35679;38.732;-121.358;2024-03-22T10:41:43;2.78;;;2.58;;
49784;SDS011;35679;38.732;-121.358;2024-03-22T10:44:32;2.90;;;2.70;;
49784;SDS011;35679;38.732;-121.358;2024-03-22T10:47:19;2.88;;;2.70;;
49784;SDS011;35679;38.732;-121.358;2024-03-22T10:50:11;2.65;;;2.50;;
49784;SDS011;35679;38.732;-121.358;2024-03-22T10:53:01;3.13;;;2.83;;
49784;SDS011;35679;38.732;-121.358;2024-03-22T10:55:53;2.90;;;2.70;;
49784;SDS011;35679;38.732;-121.358;2024-03-22T10:58:43;2.72;;;2.53;;
49784;SDS011;35679;38.732;-121.358;2024-03-22T11:01:34;2.60;;;2.50;;
49784;SDS011;35679;38.732;-121.358;2024-03-22T11:04:23;3.22;;;3.00;;
49784;SDS011;35679;38.732;-121.358;2024-03-22T11:07:20;2.78;;;2.58;;
49784;SDS011;35679;38.732;-121.358;2024-03-22T11:10:08;3.15;;;2.65;;
49784;SDS011;35679;38.732;-121.358;2024-03-22T11:13:01;2.63;;;2.33;;
49784;SDS011;35679;38.732;-121.358;2024-03-22T11:15:50;3.15;;;2.50;;
49784;SDS011;35679;38.732;-121.358;2024-03-22T11:18:38;3.55;;;2.95;;
49784;SDS011;35679;38.732;-121.358;2024-03-22T11:21:26;2.70;;;2.60;;
49784;SDS011;35679;38.732;-121.358;2024-03-22T11:24:13;2.60;;;2.40;;
49784;SDS011;35679;38.732;-121.358;2024-03-22T11:27:02;3.13;;;2.90;;
49784;SDS011;35679;38.732;-121.358;2024-03-22T11:29:50;2.92;;;2.63;;
49784;SDS011;35679;38.732;-121.358;2024-03-22T11:32:41;2.42;;;2.33;;
49784;SDS011;35679;38.732;-121.358;2024-03-22T11:35:33;2.78;;;2.58;;
49784;SDS011;35679;38.732;-121.358;2024-03-22T11:38:21;2.70;;;2.50;;
49784;SDS011;35679;38.732;-121.358;2024-03-22T11:41:09;2.97;;;2.78;;
49784;SDS011;35679;38.732;-121.358;2024-03-22T11:43:57;2.90;;;2.70;;
49784;SDS011;35679;38.732;-121.358;2024-03-22T11:46:47;2.70;;;2.60;;
49784;SDS011;35679;38.732;-121.358;2024-03-22T11:49:34;2.63;;;2.42;;
49784;SDS011;35679;38.732;-121.358;2024-03-22T11:52:25;2.60;;;2.40;;
49784;SDS011;35679;38.732;-121.358;2024-03-22T11:55:14;2.63;;;2.42;;
49784;SDS011;35679;38.732;-121.358;2024-03-22T11:58:01;2.67;;;2.47;;
49784;SDS011;35679;38.732;-121.358;2024-03-22T12:00:49;2.40;;;2.30;;
49784;SDS011;35679;38.732;-121.358;2024-03-22T12:03:37;3.00;;;2.80;;
49784;SDS011;35679;38.732;-121.358;2024-03-22T12:06:26;2.58;;;2.40;;
49784;SDS011;35679;38.732;-121.358;2024-03-22T12:09:14;2.60;;;2.40;;
49784;SDS011;35679;38.732;-121.358;2024-03-22T12:12:01;2.40;;;2.30;;
49784;SDS011;35679;38.732;-121.358;2024-03-22T12:14:51;2.60;;;2.40;;
49784;SDS011;35679;38.732;-121.358;2024-03-22T12:17:39;2.72;;;2.53;;
49784;SDS011;35679;38.732;-121.358;2024-03-22T12:20:29;2.30;;;2.20;;
49784;SDS011;35679;38.732;-121.358;2024-03-22T12:23:17;2.97;;;2.78;;
49784;SDS011;35679;38.732;-121.358;2024-03-22T12:26:05;2.92;;;2.72;;
49784;SDS011;35679;38.732;-121.358;2024-03-22T12:28:53;2.95;;;2.60;;
49784;SDS011;35679;38.732;-121.358;2024-03-22T12:31:40;4.55;;;2.60;;
49784;SDS011;35679;38.732;-121.358;2024-03-22T12:34:28;2.90;;;2.70;;
49784;SDS011;35679;38.732;-121.358;2024-03-22T12:37:16;2.60;;;2.50;;
49784;SDS011;35679;38.732;-121.358;2024-03-22T12:40:04;3.08;;;2.60;;
49784;SDS011;35679;38.732;-121.358;2024-03-22T12:42:55;2.60;;;2.40;;
49784;SDS011;35679;38.732;-121.358;2024-03-22T12:45:43;2.60;;;2.40;;
49784;SDS011;35679;38.732;-121.358;2024-03-22T12:48:30;2.53;;;2.35;;
49784;SDS011;35679;38.732;-121.358;2024-03-22T12:51:18;2.53;;;2.38;;
49784;SDS011;35679;38.732;-121.358;2024-03-22T12:54:07;2.83;;;2.63;;
49784;SDS011;35679;38.732;-121.358;2024-03-22T12:56:55;2.78;;;2.58;;
49784;SDS011;35679;38.732;-121.358;2024-03-22T12:59:43;2.60;;;2.40;;
49784;SDS011;35679;38.732;-121.358;2024-03-22T13:02:33;2.80;;;2.60;;
49784;SDS011;35679;38.732;-121.358;2024-03-22T13:05:20;2.42;;;2.33;;
49784;SDS011;35679;38.732;-121.358;2024-03-22T13:08:08;2.63;;;2.50;;
49784;SDS011;35679;38.732;-121.358;2024-03-22T13:10:56;2.63;;;2.38;;
49784;SDS011;35679;38.732;-121.358;2024-03-22T13:13:43;2.70;;;2.50;;
49784;SDS011;35679;38.732;-121.358;2024-03-22T13:16:31;4.22;;;2.70;;
49784;SDS011;35679;38.732;-121.358;2024-03-22T13:19:19;3.72;;;2.75;;
49784;SDS011;35679;38.732;-121.358;2024-03-22T13:22:08;3.13;;;2.60;;
49784;SDS011;35679;38.732;-121.358;2024-03-22T13:24:56;2.45;;;2.35;;
49784;SDS011;35679;38.732;-121.358;2024-03-22T13:27:43;2.88;;;2.75;;
49784;SDS011;35679;38.732;-121.358;2024-03-22T13:30:31;2.60;;;2.40;;
49784;SDS011;35679;38.732;-121.358;2024-03-22T13:33:21;2.58;;;2.47;;
49784;SDS011;35679;38.732;-121.358;2024-03-22T13:36:09;2.60;;;2.50;;
49784;SDS011;35679;38.732;-121.358;2024-03-22T13:38:57;2.78;;;2.58;;
49784;SDS011;35679;38.732;-121.358;2024-03-22T13:41:44;3.08;;;2.50;;
49784;SDS011;35679;38.732;-121.358;2024-03-22T13:44:32;2.42;;;2.33;;
49784;SDS011;35679;38.732;-121.358;2024-03-22T13:47:20;2.70;;;2.50;;
49784;SDS011;35679;38.732;-121.358;2024-03-22T13:50:08;4.95;;;2.78;;
49784;SDS011;35679;38.732;-121.358;2024-03-22T13:52:56;2.65;;;2.50;;
49784;SDS011;35679;38.732;-121.358;2024-03-22T13:55:44;2.97;;;2.78;;
49784;SDS011;35679;38.732;-121.358;2024-03-22T13:58:32;2.60;;;2.40;;
49784;SDS011;35679;38.732;-121.358;2024-03-22T14:01:19;2.72;;;2.53;;
49784;SDS011;35679;38.732;-121.358;2024-03-22T14:04:09;2.63;;;2.42;;
49784;SDS011;35679;38.732;-121.358;2024-03-22T14:06:57;2.40;;;2.30;;
49784;SDS011;35679;38.732;-121.358;2024-03-22T14:09:45;2.40;;;2.30;;
49784;SDS011;35679;38.732;-121.358;2024-03-22T14:12:33;2.40;;;2.30;;
49784;SDS011;35679;38.732;-121.358;2024-03-22T14:15:20;2.75;;;2.60;;
49784;SDS011;35679;38.732;-121.358;2024-03-22T14:18:08;2.80;;;2.60;;
49784;SDS011;35679;38.732;-121.358;2024-03-22T14:20:56;2.60;;;2.40;;
49784;SDS011;35679;38.732;-121.358;2024-03-22T14:23:45;2.72;;;2.63;;
49784;SDS011;35679;38.732;-121.358;2024-03-22T14:26:33;2.78;;;2.67;;
49784;SDS011;35679;38.732;-121.358;2024-03-22T14:29:21;3.00;;;2.80;;
49784;SDS011;35679;38.732;-121.358;2024-03-22T14:32:09;6.03;;;5.70;;
49784;SDS011;35679;38.732;-121.358;2024-03-22T14:34:57;4.07;;;3.88;;
49784;SDS011;35679;38.732;-121.358;2024-03-22T14:37:45;3.38;;;3.13;;
49784;SDS011;35679;38.732;-121.358;2024-03-22T14:40:33;4.28;;;4.07;;
49784;SDS011;35679;38.732;-121.358;2024-03-22T14:43:25;8.30;;;7.80;;
49784;SDS011;35679;38.732;-121.358;2024-03-22T14:46:13;8.55;;;8.07;;
49784;SDS011;35679;38.732;-121.358;2024-03-22T14:49:02;7.85;;;7.45;;
49784;SDS011;35679;38.732;-121.358;2024-03-22T14:51:50;7.95;;;7.45;;
49784;SDS011;35679;38.732;-121.358;2024-03-22T14:54:38;4.00;;;3.80;;
49784;SDS011;35679;38.732;-121.358;2024-03-22T14:57:26;2.65;;;2.45;;
49784;SDS011;35679;38.732;-121.358;2024-03-22T15:00:14;2.70;;;2.60;;
49784;SDS011;35679;38.732;-121.358;2024-03-22T15:03:02;2.75;;;2.55;;
49784;SDS011;35679;38.732;-121.358;2024-03-22T15:05:50;2.65;;;2.50;;
49784;SDS011;35679;38.732;-121.358;2024-03-22T15:08:40;2.75;;;2.55;;
49784;SDS011;35679;38.732;-121.358;2024-03-22T15:11:27;2.45;;;2.35;;
49784;SDS011;35679;38.732;-121.358;2024-03-22T15:14:15;2.53;;;2.38;;
49784;SDS011;35679;38.732;-121.358;2024-03-22T15:17:03;2.80;;;2.60;;
49784;SDS011;35679;38.732;-121.358;2024-03-22T15:19:51;2.72;;;2.53;;
49784;SDS011;35679;38.732;-121.358;2024-03-22T15:22:39;2.50;;;2.40;;
49784;SDS011;35679;38.732;-121.358;2024-03-22T15:25:27;2.50;;;2.40;;
49784;SDS011;35679;38.732;-121.358;2024-03-22T15:28:14;2.60;;;2.40;;
49784;SDS011;35679;38.732;-121.358;2024-03-22T15:31:02;2.80;;;2.70;;
49784;SDS011;35679;38.732;-121.358;2024-03-22T15:33:50;2.47;;;2.38;;
49784;SDS011;35679;38.732;-121.358;2024-03-22T15:36:38;2.45;;;2.35;;
49784;SDS011;35679;38.732;-121.358;2024-03-22T15:39:26;2.50;;;2.40;;
49784;SDS011;35679;38.732;-121.358;2024-03-22T15:42:14;2.47;;;2.38;;
49784;SDS011;35679;38.732;-121.358;2024-03-22T15:45:02;2.80;;;2.40;;
49784;SDS011;35679;38.732;-121.358;2024-03-22T15:47:52;2.80;;;2.70;;
49784;SDS011;35679;38.732;-121.358;2024-03-22T15:50:39;2.58;;;2.40;;
49784;SDS011;35679;38.732;-121.358;2024-03-22T15:53:27;2.85;;;2.65;;
49784;SDS011;35679;38.732;-121.358;2024-03-22T15:56:15;2.80;;;2.47;;
49784;SDS011;35679;38.732;-121.358;2024-03-22T15:59:03;2.70;;;2.50;;
49784;SDS011;35679;38.732;-121.358;2024-03-22T16:01:51;3.03;;;2.83;;
49784;SDS011;35679;38.732;-121.358;2024-03-22T16:04:39;3.30;;;3.10;;
49784;SDS011;35679;38.732;-121.358;2024-03-22T16:07:27;2.80;;;2.70;;
49784;SDS011;35679;38.732;-121.358;2024-03-22T16:10:15;3.03;;;2.83;;